Time;durP1;ratioP1;P1;durP2;ratioP2;P2;SDS_P1;SDS_P2;PMS_P1;PMS_P2;Temp;Humidity;BMP_temperature;BMP_pressure;BME280_temperature;BME280_humidity;BME280_pressure;Samples;Min_cycle;Max_cycle;Signal;HPM_P1;HPM_P2
2023/08/11 00:00:25;;;;;;;4.88;1.85;;;;;;;15.02;67.06;101393.50;2059303;28;20787;-71
2023/08/11 00:01:29;;;;;;;6.68;2.10;;;;;;;15.01;67.23;101391.91;2066692;28;20118;-72
2023/08/11 00:02:33;;;;;;;5.70;1.70;;;;;;;15.01;66.82;101395.41;2066498;28;20157;-71
2023/08/11 00:03:34;;;;;;;5.38;1.83;;;;;;;15.00;66.63;101396.50;2066337;28;20807;-72
2023/08/11 00:04:36;;;;;;;5.05;1.70;;;;;;;15.03;66.80;101395.91;2057825;28;20047;-71
2023/08/11 00:05:43;;;;;;;7.47;2.67;;;;;;;15.05;67.16;101384.81;2058420;28;20024;-72
2023/08/11 00:06:45;;;;;;;4.40;1.95;;;;;;;15.08;66.77;101397.78;2049407;28;20063;-71
2023/08/11 00:07:50;;;;;;;7.28;1.85;;;;;;;15.10;66.67;101392.88;2054144;28;20772;-71
2023/08/11 00:08:55;;;;;;;3.70;1.48;;;;;;;15.09;66.52;101385.84;2062998;28;20748;-71
2023/08/11 00:09:57;;;;;;;3.70;1.40;;;;;;;15.07;66.46;101396.97;2061760;28;20039;-71
2023/08/11 00:11:01;;;;;;;6.93;1.90;;;;;;;15.08;66.45;101381.53;2071021;28;20050;-71
2023/08/11 00:12:06;;;;;;;4.32;1.70;;;;;;;15.09;66.68;101390.44;2063543;28;20109;-71
2023/08/11 00:13:13;;;;;;;5.68;2.10;;;;;;;15.07;66.66;101396.19;2071876;28;20153;-71
2023/08/11 00:14:14;;;;;;;8.38;1.85;;;;;;;15.06;66.53;101397.25;2069775;28;20037;-71
2023/08/11 00:15:18;;;;;;;9.13;2.00;;;;;;;15.04;66.27;101394.03;2072664;28;20043;-71
2023/08/11 00:16:24;;;;;;;3.88;1.60;;;;;;;15.06;66.20;101400.75;2064001;28;20156;-71
2023/08/11 00:17:28;;;;;;;5.80;1.60;;;;;;;15.06;66.54;101408.88;2063080;28;20150;-71
2023/08/11 00:18:30;;;;;;;8.10;2.00;;;;;;;15.09;66.55;101404.00;2055634;28;20035;-71
2023/08/11 00:19:34;;;;;;;4.93;1.90;;;;;;;15.05;66.59;101399.16;2057827;28;21305;-71
2023/08/11 00:20:39;;;;;;;6.00;1.70;;;;;;;15.11;66.58;101401.81;2064814;28;20043;-71
2023/08/11 00:21:41;;;;;;;5.80;1.77;;;;;;;15.11;66.46;101404.53;2069813;28;20093;-71
2023/08/11 00:22:43;;;;;;;5.30;1.90;;;;;;;15.12;66.41;101395.28;2065588;28;20031;-71
2023/08/11 00:23:45;;;;;;;8.40;1.63;;;;;;;15.11;66.61;101399.09;2042117;28;20123;-71
2023/08/11 00:24:47;;;;;;;5.47;1.70;;;;;;;15.09;66.64;101399.38;2049864;28;20055;-71
2023/08/11 00:25:49;;;;;;;5.55;1.70;;;;;;;15.11;66.46;101399.09;2058094;28;20125;-71
2023/08/11 00:26:54;;;;;;;4.35;1.50;;;;;;;15.09;66.46;101399.38;2058022;28;20066;-70
2023/08/11 00:27:58;;;;;;;8.90;2.08;;;;;;;15.09;66.57;101404.00;2069382;28;20185;-70
2023/08/11 00:29:00;;;;;;;6.93;1.55;;;;;;;15.09;66.44;101395.88;2074201;28;20057;-70
2023/08/11 00:30:09;;;;;;;8.93;2.08;;;;;;;15.09;66.44;101404.00;2066493;28;20882;-70
2023/08/11 00:31:13;;;;;;;3.13;2.25;;;;;;;15.09;66.58;101401.28;2066709;28;20027;-70
2023/08/11 00:32:15;;;;;;;5.38;1.40;;;;;;;15.10;66.53;101395.59;2057900;28;20040;-71
2023/08/11 00:33:18;;;;;;;3.97;1.65;;;;;;;15.09;66.26;101388.53;2058093;28;20035;-70
2023/08/11 00:34:20;;;;;;;3.63;1.60;;;;;;;15.10;66.35;101400.19;2058009;28;20222;-71
2023/08/11 00:35:22;;;;;;;5.13;1.50;;;;;;;15.12;66.35;101400.72;2066326;28;20054;-71
2023/08/11 00:36:26;;;;;;;6.07;1.95;;;;;;;15.11;65.98;101399.91;2073684;28;20041;-71
2023/08/11 00:37:28;;;;;;;7.05;1.60;;;;;;;15.12;65.96;101400.72;2066151;28;20019;-71
2023/08/11 00:38:39;;;;;;;9.02;1.98;;;;;;;15.13;66.20;101410.44;2065915;28;20039;-71
2023/08/11 00:39:41;;;;;;;5.40;1.63;;;;;;;15.15;65.96;101395.53;2067309;28;20073;-71
2023/08/11 00:40:42;;;;;;;5.50;1.70;;;;;;;15.17;65.94;101403.38;2057952;28;20027;-70
2023/08/11 00:41:45;;;;;;;6.57;1.90;;;;;;;15.17;66.18;101397.97;2049777;28;20027;-70
2023/08/11 00:42:49;;;;;;;5.78;1.60;;;;;;;15.21;65.80;101407.13;2050376;28;20066;-70
2023/08/11 00:43:53;;;;;;;4.82;1.80;;;;;;;15.23;66.06;101405.72;2066249;28;20031;-71
2023/08/11 00:44:59;;;;;;;7.65;1.40;;;;;;;15.26;65.88;101404.34;2067020;28;20015;-70
2023/08/11 00:46:10;;;;;;;4.45;1.63;;;;;;;15.27;65.68;101403.25;2065211;28;20035;-70
2023/08/11 00:47:15;;;;;;;6.20;1.50;;;;;;;15.31;65.81;101406.97;2067334;28;20066;-70
2023/08/11 00:48:19;;;;;;;5.57;1.85;;;;;;;15.32;65.76;101414.03;2058618;28;20843;-71
2023/08/11 00:49:24;;;;;;;6.75;1.60;;;;;;;15.31;65.99;101412.41;2058651;28;20034;-71
2023/08/11 00:50:26;;;;;;;5.90;1.73;;;;;;;15.31;66.20;101406.97;2050015;28;20142;-71
2023/08/11 00:51:30;;;;;;;5.07;1.50;;;;;;;15.31;66.77;101409.69;2050537;28;20047;-71
2023/08/11 00:52:35;;;;;;;4.35;1.55;;;;;;;15.35;66.82;101413.44;2058111;28;21403;-70
2023/08/11 00:53:37;;;;;;;5.75;1.67;;;;;;;15.38;66.39;101417.47;2050804;28;20062;-70
2023/08/11 00:54:41;;;;;;;5.03;1.70;;;;;;;15.39;66.40;101417.19;2057997;28;20082;-70
2023/08/11 00:55:45;;;;;;;4.07;1.60;;;;;;;15.41;66.70;101414.19;2066631;28;20885;-71
2023/08/11 00:56:49;;;;;;;6.75;1.90;;;;;;;15.41;66.74;101409.56;2057805;28;20146;-71
2023/08/11 00:57:51;;;;;;;7.75;1.85;;;;;;;15.36;66.86;101406.94;2058746;28;20061;-71
2023/08/11 00:58:55;;;;;;;5.18;1.55;;;;;;;15.33;66.91;101415.63;2065967;28;20033;-71
2023/08/11 01:00:00;;;;;;;5.68;1.80;;;;;;;15.35;66.71;101421.56;2058123;28;20031;-71
2023/08/11 01:01:01;;;;;;;6.32;1.83;;;;;;;15.36;66.72;101415.06;2058452;28;20039;-71
2023/08/11 01:02:04;;;;;;;5.88;1.75;;;;;;;15.34;66.96;101411.81;2057518;28;20039;-71
2023/08/11 01:03:08;;;;;;;6.28;1.50;;;;;;;15.34;67.28;101417.25;2059087;28;20118;-70
2023/08/11 01:04:10;;;;;;;8.57;2.28;;;;;;;15.34;66.99;101416.44;2074154;28;20046;-69
2023/08/11 01:05:16;;;;;;;6.43;1.33;;;;;;;15.33;67.45;101410.22;2081740;28;20045;-70
2023/08/11 01:06:23;;;;;;;6.03;1.85;;;;;;;15.33;67.83;101415.63;2072878;28;20113;-70
2023/08/11 01:07:31;;;;;;;4.55;1.60;;;;;;;15.31;66.76;101417.81;2058418;28;20882;-70
2023/08/11 01:09:13;;;;;;;5.18;1.60;;;;;;;15.29;66.75;101409.19;2060553;28;21016;-72
2023/08/11 01:10:41;;;;;;;5.60;1.80;;;;;;;15.27;66.90;101417.59;2055012;28;20040;-73
2023/08/11 01:11:43;;;;;;;6.63;1.73;;;;;;;15.24;66.44;101415.47;2060175;28;20889;-72
2023/08/11 01:12:54;;;;;;;3.45;1.40;;;;;;;15.23;66.45;101413.06;2049572;28;20095;-72
2023/08/11 01:14:06;;;;;;;5.18;1.40;;;;;;;15.24;66.20;101409.25;2061301;28;20971;-71
2023/08/11 01:15:34;;;;;;;4.05;1.33;;;;;;;15.21;65.76;101407.13;2065807;28;20042;-71
2023/08/11 01:16:37;;;;;;;6.13;1.67;;;;;;;15.18;65.40;101413.09;2069361;28;20041;-72
2023/08/11 01:17:41;;;;;;;7.13;1.40;;;;;;;15.18;65.69;101413.09;2073738;28;20037;-72
2023/08/11 01:18:43;;;;;;;5.47;1.80;;;;;;;15.19;65.42;101403.88;2065700;28;20027;-70
2023/08/11 01:19:49;;;;;;;5.82;1.48;;;;;;;15.21;65.65;101407.91;2058014;28;20037;-70
2023/08/11 01:20:54;;;;;;;4.75;1.50;;;;;;;15.18;65.56;101413.09;2058270;28;20791;-70
2023/08/11 01:21:59;;;;;;;5.63;1.48;;;;;;;15.21;65.47;101407.13;2065820;28;20133;-70
2023/08/11 01:23:05;;;;;;;4.90;1.75;;;;;;;15.22;65.52;101403.28;2065728;28;20050;-70
2023/08/11 01:24:08;;;;;;;5.82;1.80;;;;;;;15.23;65.69;101399.50;2066516;28;20046;-70
2023/08/11 01:25:12;;;;;;;6.05;1.50;;;;;;;15.24;65.78;101406.53;2057442;28;20059;-70
2023/08/11 01:26:14;;;;;;;5.43;2.28;;;;;;;15.23;65.54;101392.19;2042056;28;20047;-70
2023/08/11 01:27:16;;;;;;;5.22;1.70;;;;;;;15.29;65.53;101401.88;2050019;28;20047;-70
2023/08/11 01:28:18;;;;;;;4.30;1.35;;;;;;;15.33;65.46;101396.69;2049434;28;20036;-70
2023/08/11 01:29:20;;;;;;;6.35;1.40;;;;;;;15.36;65.08;101398.81;2050074;28;20050;-70
2023/08/11 01:30:26;;;;;;;6.38;1.38;;;;;;;15.38;65.01;101402.00;2050020;28;20144;-70
2023/08/11 01:31:28;;;;;;;4.10;1.25;;;;;;;15.39;65.06;101392.81;2042150;28;20024;-70
2023/08/11 01:32:30;;;;;;;2.97;1.50;;;;;;;15.42;65.01;101397.66;2057442;28;20043;-70
2023/08/11 01:33:33;;;;;;;7.70;1.63;;;;;;;15.44;64.79;101395.44;2073598;28;20866;-70
2023/08/11 01:34:40;;;;;;;1.83;1.25;;;;;;;15.42;64.39;101391.44;2065545;28;20080;-70
2023/08/11 01:35:46;;;;;;;6.90;1.65;;;;;;;15.45;64.23;101390.84;2049597;28;20039;-71
2023/08/11 01:37:03;;;;;;;7.63;1.60;;;;;;;15.45;64.27;101394.34;2050110;28;20882;-71
2023/08/11 01:38:04;;;;;;;4.00;1.20;;;;;;;15.45;64.31;101391.66;2060019;28;20238;-71
2023/08/11 01:39:10;;;;;;;7.03;1.50;;;;;;;15.46;64.25;101389.75;2057804;28;20874;-71
2023/08/11 01:40:14;;;;;;;4.43;1.35;;;;;;;15.44;64.31;101387.31;2065714;28;20035;-71
2023/08/11 01:41:16;;;;;;;2.95;1.27;;;;;;;15.43;64.30;101393.81;2065541;28;20113;-71
2023/08/11 01:42:19;;;;;;;6.78;1.50;;;;;;;15.47;64.66;101394.84;2057336;28;20040;-71
2023/08/11 01:43:22;;;;;;;3.50;1.48;;;;;;;15.45;64.36;101397.06;2049396;28;20028;-71
2023/08/11 01:44:29;;;;;;;3.67;1.33;;;;;;;15.44;64.24;101392.72;2057688;28;20150;-71
2023/08/11 01:45:31;;;;;;;9.32;2.35;;;;;;;15.45;64.36;101386.22;2065461;28;20822;-71
2023/08/11 01:46:33;;;;;;;4.47;1.45;;;;;;;15.45;64.41;101388.94;2057895;28;20035;-71
2023/08/11 01:47:39;;;;;;;4.40;1.38;;;;;;;15.47;64.16;101385.91;2049860;28;20915;-71
2023/08/11 01:48:41;;;;;;;6.30;1.20;;;;;;;15.46;64.10;101387.81;2042383;28;20883;-71
2023/08/11 01:49:43;;;;;;;4.05;1.60;;;;;;;15.47;64.25;101385.91;2050065;28;20304;-71
2023/08/11 01:50:45;;;;;;;4.60;1.60;;;;;;;15.47;64.74;101389.44;2060699;28;20149;-71
2023/08/11 01:51:49;;;;;;;3.00;1.38;;;;;;;15.48;64.39;101385.66;2057911;28;20036;-71
2023/08/11 01:52:52;;;;;;;6.20;1.42;;;;;;;15.50;64.27;101382.63;2057790;28;20019;-71
2023/08/11 01:53:53;;;;;;;6.22;1.70;;;;;;;15.47;64.39;101384.00;2065725;28;20038;-71
2023/08/11 01:54:56;;;;;;;3.85;1.50;;;;;;;15.48;64.24;101391.06;2057562;28;20047;-70
2023/08/11 01:55:58;;;;;;;12.85;1.60;;;;;;;15.49;64.17;101383.75;2057830;28;20784;-71
2023/08/11 01:57:06;;;;;;;5.43;1.58;;;;;;;15.49;64.13;101386.44;2051127;28;20032;-71
2023/08/11 01:58:10;;;;;;;5.90;1.67;;;;;;;15.45;64.55;101380.81;2051241;28;20032;-71
2023/08/11 01:59:15;;;;;;;7.45;1.77;;;;;;;15.43;64.61;101388.41;2043230;28;20085;-71
2023/08/11 02:00:21;;;;;;;7.25;1.75;;;;;;;15.41;65.08;101385.16;2043435;28;20035;-71
2023/08/11 02:01:26;;;;;;;8.02;1.63;;;;;;;15.38;65.00;101384.94;2059053;28;20020;-71
2023/08/11 02:02:28;;;;;;;5.63;1.80;;;;;;;15.35;65.18;101380.13;2073424;28;20124;-71
2023/08/11 02:03:33;;;;;;;6.75;1.42;;;;;;;15.33;65.78;101388.53;2065190;28;20837;-71
2023/08/11 02:04:35;;;;;;;7.75;1.58;;;;;;;15.33;65.64;101380.41;2058395;28;20154;-71
2023/08/11 02:05:36;;;;;;;4.57;1.55;;;;;;;15.33;65.80;101382.31;2065423;28;20030;-71
2023/08/11 02:06:39;;;;;;;8.35;1.70;;;;;;;15.33;65.83;101383.13;2049436;28;20191;-71
2023/08/11 02:07:41;;;;;;;8.45;1.60;;;;;;;15.33;65.87;101383.13;2050322;28;20898;-71
2023/08/11 02:08:42;;;;;;;3.70;1.50;;;;;;;15.36;66.03;101382.53;2065641;28;20039;-71
2023/08/11 02:09:45;;;;;;;3.92;1.50;;;;;;;15.36;66.57;101379.84;2065283;28;20035;-71
2023/08/11 02:10:47;;;;;;;4.82;1.50;;;;;;;15.38;66.38;101385.75;2056740;28;20130;-71
2023/08/11 02:11:49;;;;;;;4.22;1.40;;;;;;;15.41;66.17;101378.94;2049049;28;20102;-71
2023/08/11 02:12:53;;;;;;;2.97;1.38;;;;;;;15.44;66.28;101383.78;2041676;28;20280;-71
2023/08/11 02:13:55;;;;;;;4.75;1.52;;;;;;;15.40;65.98;101374.63;2033929;28;20047;-71
2023/08/11 02:14:56;;;;;;;4.53;1.45;;;;;;;15.39;65.83;101381.97;2057756;28;20031;-71
2023/08/11 02:16:01;;;;;;;3.47;1.42;;;;;;;15.39;66.35;101381.16;2057157;28;20037;-71
2023/08/11 02:17:05;;;;;;;4.60;1.45;;;;;;;15.38;66.33;101374.91;2049947;28;20114;-71
2023/08/11 02:18:09;;;;;;;4.93;1.75;;;;;;;15.39;66.23;101383.88;2057951;28;20083;-71
2023/08/11 02:19:14;;;;;;;8.85;2.22;;;;;;;15.39;66.30;101387.38;2065486;28;20023;-71
2023/08/11 02:20:22;;;;;;;3.08;1.52;;;;;;;15.38;66.29;101377.63;2057326;28;20035;-71
2023/08/11 02:21:25;;;;;;;7.32;1.48;;;;;;;15.41;66.06;101374.34;2051191;28;20874;-71
2023/08/11 02:22:29;;;;;;;6.85;1.95;;;;;;;15.40;65.98;101378.16;2049479;28;20048;-70
2023/08/11 02:23:31;;;;;;;5.82;1.65;;;;;;;15.42;66.31;101381.38;2048959;28;20079;-71
2023/08/11 02:24:35;;;;;;;4.47;1.40;;;;;;;15.43;66.34;101382.19;2048889;28;20175;-71
2023/08/11 02:25:40;;;;;;;7.18;1.90;;;;;;;15.39;66.15;101387.38;2057512;28;20050;-72
2023/08/11 02:26:42;;;;;;;8.05;1.50;;;;;;;15.34;66.25;101384.72;2057002;28;20990;-72
2023/08/11 02:27:43;;;;;;;4.38;1.48;;;;;;;15.32;66.14;101386.09;2063729;28;20049;-71
2023/08/11 02:28:52;;;;;;;3.95;1.35;;;;;;;15.29;66.45;101385.63;2057652;28;20062;-71
2023/08/11 02:29:54;;;;;;;5.00;1.77;;;;;;;15.33;66.31;101385.03;2074059;28;20038;-71
2023/08/11 02:30:56;;;;;;;3.67;1.40;;;;;;;15.35;66.02;101383.63;2081439;28;20026;-71
2023/08/11 02:32:03;;;;;;;4.28;1.50;;;;;;;15.35;66.17;101391.75;2065320;28;20031;-70
2023/08/11 02:33:12;;;;;;;3.55;1.63;;;;;;;15.35;65.86;101386.34;2043413;28;20048;-71
2023/08/11 02:34:13;;;;;;;7.18;1.48;;;;;;;15.35;65.86;101391.75;2051333;28;20060;-71
2023/08/11 02:35:17;;;;;;;5.75;1.65;;;;;;;15.35;65.76;101389.03;2073619;28;20027;-71
2023/08/11 02:36:20;;;;;;;4.90;1.65;;;;;;;15.35;66.29;101393.66;2072943;28;20116;-71
2023/08/11 02:37:26;;;;;;;4.32;1.30;;;;;;;15.35;66.00;101391.75;2049785;28;21047;-71
2023/08/11 02:38:28;;;;;;;6.90;1.90;;;;;;;15.34;66.40;101394.75;2043978;28;20884;-71
2023/08/11 02:39:31;;;;;;;6.28;1.90;;;;;;;15.35;66.06;101393.66;2051080;28;20196;-73
2023/08/11 02:40:35;;;;;;;7.20;1.80;;;;;;;15.36;66.00;101387.16;2075091;28;21358;-70
2023/08/11 02:41:37;;;;;;;6.20;1.70;;;;;;;15.39;66.34;101387.38;2082295;28;21225;-71
2023/08/11 02:42:43;;;;;;;6.22;1.65;;;;;;;15.38;66.14;101385.75;2066377;28;20853;-70
2023/08/11 02:43:47;;;;;;;5.38;1.38;;;;;;;15.37;65.82;101381.44;2051544;28;20102;-71
2023/08/11 02:44:51;;;;;;;4.05;1.55;;;;;;;15.39;66.16;101383.88;2059223;28;20020;-71
2023/08/11 02:45:53;;;;;;;10.95;2.30;;;;;;;15.40;65.92;101383.56;2065956;28;20030;-71
2023/08/11 02:46:55;;;;;;;2.65;1.40;;;;;;;15.40;65.82;101380.84;2050849;28;20076;-71
2023/08/11 02:47:57;;;;;;;5.35;1.48;;;;;;;15.42;65.74;101386.81;2058536;28;20027;-71
2023/08/11 02:49:01;;;;;;;3.83;1.40;;;;;;;15.43;66.01;101391.13;2058398;28;20035;-71
2023/08/11 02:50:05;;;;;;;6.00;1.67;;;;;;;15.42;65.98;101386.00;2059230;28;20926;-71
2023/08/11 02:51:06;;;;;;;4.18;1.80;;;;;;;15.37;65.97;101384.16;2056926;28;20038;-71
2023/08/11 02:52:09;;;;;;;4.88;1.80;;;;;;;15.38;66.00;101383.03;2058625;28;20043;-71
2023/08/11 02:53:11;;;;;;;4.85;1.92;;;;;;;15.38;66.00;101385.75;2067038;28;20045;-71
2023/08/11 02:54:13;;;;;;;5.00;1.50;;;;;;;15.35;65.82;101385.53;2066264;28;20085;-70
2023/08/11 02:55:16;;;;;;;8.02;1.60;;;;;;;15.33;66.33;101390.44;2066794;28;20027;-70
2023/08/11 02:56:18;;;;;;;8.20;1.70;;;;;;;15.34;65.96;101390.16;2074822;28;20030;-70
2023/08/11 02:57:19;;;;;;;5.35;1.90;;;;;;;15.29;65.84;101382.91;2058495;28;20039;-70
2023/08/11 02:58:21;;;;;;;5.32;1.77;;;;;;;15.31;66.08;101382.59;2058876;28;20114;-70
2023/08/11 02:59:23;;;;;;;6.43;1.70;;;;;;;15.29;66.21;101382.91;2066962;28;20358;-70
2023/08/11 03:00:25;;;;;;;5.55;1.83;;;;;;;15.28;65.97;101385.88;2066392;28;20101;-71
2023/08/11 03:01:27;;;;;;;4.18;1.58;;;;;;;15.28;65.94;101388.59;2059018;28;20047;-70
2023/08/11 03:02:29;;;;;;;6.93;1.60;;;;;;;15.25;66.36;101383.75;2058334;28;21065;-71
2023/08/11 03:03:31;;;;;;;8.13;1.60;;;;;;;15.21;66.27;101383.53;2058578;28;20034;-71
2023/08/11 03:04:36;;;;;;;3.78;1.88;;;;;;;15.23;66.01;101391.38;2059471;28;21027;-70
2023/08/11 03:05:38;;;;;;;3.63;1.58;;;;;;;15.22;66.26;101384.34;2058349;28;20114;-71
2023/08/11 03:06:39;;;;;;;4.45;1.48;;;;;;;15.20;65.92;101381.13;2042470;28;20048;-70
2023/08/11 03:07:42;;;;;;;4.65;1.80;;;;;;;15.19;66.26;101393.84;2058709;28;20090;-69
2023/08/11 03:08:43;;;;;;;4.20;1.42;;;;;;;15.19;66.07;101390.31;2066737;28;20029;-69
2023/08/11 03:09:46;;;;;;;4.95;1.63;;;;;;;15.17;66.12;101389.81;2066935;28;20068;-69
2023/08/11 03:10:48;;;;;;;7.07;1.63;;;;;;;15.17;66.28;101395.25;2066424;28;20015;-69
2023/08/11 03:11:49;;;;;;;4.88;1.50;;;;;;;15.15;66.20;101394.72;2074829;28;20054;-69
2023/08/11 03:12:54;;;;;;;5.43;1.60;;;;;;;15.13;66.23;101389.59;2074489;28;20027;-69
2023/08/11 03:13:55;;;;;;;6.25;1.83;;;;;;;15.11;66.35;101385.56;2066480;28;20783;-69
2023/08/11 03:14:57;;;;;;;5.68;1.63;;;;;;;15.14;66.32;101385.00;2050280;28;20895;-69
2023/08/11 03:15:59;;;;;;;5.10;1.85;;;;;;;15.16;66.54;101388.19;2050929;28;20920;-69
2023/08/11 03:17:00;;;;;;;10.82;1.90;;;;;;;15.15;66.32;101386.59;2058323;28;20842;-69
2023/08/11 03:18:03;;;;;;;4.63;1.77;;;;;;;15.14;66.51;101390.41;2058568;28;20045;-69
2023/08/11 03:19:05;;;;;;;6.53;1.80;;;;;;;15.14;66.16;101390.41;2050585;28;20036;-70
2023/08/11 03:20:12;;;;;;;3.10;1.75;;;;;;;15.14;66.38;101387.69;2058856;28;20043;-70
2023/08/11 03:21:16;;;;;;;6.85;1.77;;;;;;;15.08;66.44;101381.53;2058116;28;20141;-70
2023/08/11 03:22:19;;;;;;;4.38;1.65;;;;;;;15.10;66.41;101389.34;2059346;28;20074;-70
2023/08/11 03:23:27;;;;;;;4.57;1.55;;;;;;;15.10;66.67;101389.34;2066851;28;20031;-69
2023/08/11 03:24:29;;;;;;;4.93;1.77;;;;;;;15.07;66.56;101388.84;2058561;28;20953;-69
2023/08/11 03:25:33;;;;;;;7.07;1.70;;;;;;;15.06;66.18;101391.84;2058472;28;20869;-71
2023/08/11 03:26:36;;;;;;;4.85;1.63;;;;;;;15.05;66.30;101393.75;2058899;28;20075;-71
2023/08/11 03:27:41;;;;;;;3.25;1.45;;;;;;;15.02;66.28;101380.78;2050258;28;20138;-71
2023/08/11 03:28:44;;;;;;;6.97;1.90;;;;;;;14.98;66.60;101382.44;2051297;28;20138;-71
2023/08/11 03:29:47;;;;;;;3.88;1.67;;;;;;;14.94;66.74;101386.84;2049906;28;20833;-71
2023/08/11 03:30:51;;;;;;;7.13;1.70;;;;;;;14.92;66.51;101389.00;2034995;28;20151;-71
2023/08/11 03:31:53;;;;;;;4.28;1.67;;;;;;;14.90;66.60;101384.97;2043218;28;20803;-71
2023/08/11 03:32:56;;;;;;;5.18;2.47;;;;;;;14.89;67.08;101394.19;2050810;28;20024;-71
2023/08/11 03:34:10;;;;;;;6.32;1.65;;;;;;;14.86;67.22;101384.75;2052160;28;20901;-71
2023/08/11 03:35:17;;;;;;;4.95;1.90;;;;;;;14.83;67.06;101385.31;2050790;28;20032;-71
2023/08/11 03:36:19;;;;;;;5.45;1.70;;;;;;;14.81;67.17;101387.50;2059430;28;20078;-71
2023/08/11 03:37:21;;;;;;;4.40;1.80;;;;;;;14.79;67.07;101387.00;2050551;28;20035;-71
2023/08/11 03:38:23;;;;;;;8.10;2.55;;;;;;;14.78;66.98;101388.06;2050442;28;20031;-71
2023/08/11 03:39:25;;;;;;;6.22;2.33;;;;;;;14.73;67.09;101391.66;2058359;28;20043;-71
2023/08/11 03:40:29;;;;;;;6.32;1.70;;;;;;;14.71;67.26;101393.81;2058581;28;20145;-71
2023/08/11 03:41:31;;;;;;;4.70;1.67;;;;;;;14.70;67.36;101386.81;2058590;28;20039;-71
2023/08/11 03:42:33;;;;;;;7.78;2.10;;;;;;;14.68;67.15;101393.59;2058617;28;20241;-71
2023/08/11 03:43:40;;;;;;;4.57;1.50;;;;;;;14.59;67.45;101396.91;2050293;28;20035;-71
2023/08/11 03:44:42;;;;;;;5.90;1.50;;;;;;;14.59;67.28;101391.50;2051178;28;20152;-71
2023/08/11 03:45:43;;;;;;;4.68;1.55;;;;;;;14.63;67.64;101393.63;2042477;28;20035;-71
2023/08/11 03:46:49;;;;;;;3.58;1.52;;;;;;;14.64;67.50;101389.84;2051917;28;20027;-71
2023/08/11 03:47:50;;;;;;;7.55;1.58;;;;;;;14.67;67.23;101397.41;2058379;28;20031;-71
2023/08/11 03:48:57;;;;;;;6.13;1.67;;;;;;;14.69;67.20;101400.59;2050450;28;20759;-71
2023/08/11 03:50:02;;;;;;;5.20;1.50;;;;;;;14.69;67.53;101403.31;2051074;28;20082;-71
2023/08/11 03:51:04;;;;;;;4.43;1.65;;;;;;;14.66;67.40;101398.47;2056457;28;20122;-71
2023/08/11 03:52:07;;;;;;;4.22;1.70;;;;;;;14.60;67.57;101401.25;2042206;28;20032;-71
2023/08/11 03:53:10;;;;;;;5.18;1.90;;;;;;;14.59;67.72;101396.91;2051262;28;20028;-71
2023/08/11 03:54:12;;;;;;;7.95;1.60;;;;;;;14.58;67.98;101394.50;2058509;28;20755;-71
2023/08/11 03:55:17;;;;;;;4.03;1.50;;;;;;;14.58;67.88;101397.19;2058790;28;20858;-70
2023/08/11 03:56:21;;;;;;;3.88;1.55;;;;;;;14.60;67.69;101401.25;2058330;28;20039;-70
2023/08/11 03:57:23;;;;;;;4.47;1.63;;;;;;;14.62;67.68;101400.94;2043265;28;20048;-70
2023/08/11 03:58:24;;;;;;;5.63;1.70;;;;;;;14.61;67.71;101404.75;2042522;28;20115;-70
2023/08/11 03:59:30;;;;;;;6.60;1.50;;;;;;;14.63;67.73;101401.75;2043894;28;20044;-70
2023/08/11 04:00:31;;;;;;;4.43;1.70;;;;;;;14.64;68.18;101408.78;2050354;28;20134;-70
2023/08/11 04:01:43;;;;;;;4.97;1.40;;;;;;;14.63;68.16;101408.00;2061248;28;20783;-70
2023/08/11 04:02:45;;;;;;;6.25;2.35;;;;;;;14.65;68.19;101405.78;2058354;28;20031;-70
2023/08/11 04:03:53;;;;;;;6.53;1.88;;;;;;;14.65;68.16;101407.69;2067033;28;20065;-70
2023/08/11 04:04:55;;;;;;;6.63;2.47;;;;;;;14.66;68.44;101406.59;2065805;28;20049;-70
2023/08/11 04:06:01;;;;;;;5.43;1.98;;;;;;;14.62;68.54;101403.66;2066317;28;20866;-70
2023/08/11 04:07:05;;;;;;;5.85;2.33;;;;;;;14.68;68.34;101410.63;2074251;28;21024;-70
2023/08/11 04:08:06;;;;;;;2.17;1.40;;;;;;;14.69;68.26;101406.03;2066208;28;20149;-70
2023/08/11 04:09:08;;;;;;;5.90;2.00;;;;;;;14.67;68.23;101398.19;2058449;28;20031;-70
2023/08/11 04:10:15;;;;;;;5.55;2.08;;;;;;;14.66;68.15;101406.59;2058089;28;20053;-70
2023/08/11 04:11:17;;;;;;;5.40;1.90;;;;;;;14.71;68.36;101409.25;2059945;28;20047;-70
2023/08/11 04:12:19;;;;;;;4.53;1.60;;;;;;;14.78;68.41;101405.09;2074714;28;20212;-70
2023/08/11 04:13:20;;;;;;;6.38;1.95;;;;;;;14.83;68.75;101406.97;2082621;28;20901;-70
2023/08/11 04:14:24;;;;;;;6.20;1.80;;;;;;;14.89;68.73;101405.84;2074755;28;20034;-70
2023/08/11 04:15:26;;;;;;;5.80;1.60;;;;;;;14.92;68.51;101407.16;2066430;28;20046;-70
2023/08/11 04:16:29;;;;;;;5.80;1.63;;;;;;;14.91;68.56;101411.78;2074521;28;20901;-70
2023/08/11 04:17:33;;;;;;;9.20;2.28;;;;;;;14.87;68.26;101405.31;2057646;28;20039;-70
2023/08/11 04:18:39;;;;;;;4.78;1.40;;;;;;;14.85;68.48;101402.09;2053055;28;20149;-70
2023/08/11 04:19:41;;;;;;;7.05;2.00;;;;;;;14.83;68.40;101407.78;2058035;28;20963;-70
2023/08/11 04:20:43;;;;;;;7.88;1.77;;;;;;;14.81;68.61;101401.84;2058374;28;20130;-70
2023/08/11 04:21:45;;;;;;;6.22;1.85;;;;;;;14.83;68.66;101404.28;2066310;28;20070;-70
2023/08/11 04:22:52;;;;;;;5.78;1.50;;;;;;;14.83;68.55;101401.56;2066415;28;20023;-69
2023/08/11 04:23:56;;;;;;;5.55;1.70;;;;;;;14.87;68.55;101404.50;2067392;28;20030;-69
2023/08/11 04:24:57;;;;;;;5.38;1.65;;;;;;;14.94;68.69;101413.91;2057662;28;20846;-69
2023/08/11 04:26:05;;;;;;;6.18;1.65;;;;;;;14.96;68.65;101400.88;2067319;28;20037;-69
2023/08/11 04:27:11;;;;;;;10.25;1.60;;;;;;;14.97;68.47;101409.81;2074353;28;20136;-70
2023/08/11 04:28:13;;;;;;;5.20;2.25;;;;;;;14.95;68.67;101404.69;2063960;28;20846;-70
2023/08/11 04:29:14;;;;;;;8.20;2.65;;;;;;;14.99;68.90;101411.13;2058045;28;20027;-71
2023/08/11 04:30:19;;;;;;;7.00;2.05;;;;;;;15.02;68.67;101405.16;2050074;28;20032;-71
2023/08/11 04:31:23;;;;;;;7.03;1.90;;;;;;;15.04;68.41;101408.38;2051483;28;21055;-71
2023/08/11 04:32:28;;;;;;;6.00;1.52;;;;;;;15.13;68.52;101405.03;2066429;28;20035;-70
2023/08/11 04:33:32;;;;;;;5.55;1.73;;;;;;;15.20;68.14;101403.59;2058026;28;21229;-70
2023/08/11 04:34:34;;;;;;;4.65;1.67;;;;;;;15.31;68.29;101406.97;2057962;28;20894;-71
2023/08/11 04:35:38;;;;;;;5.10;1.60;;;;;;;15.41;68.36;101406.06;2058023;28;20047;-71
2023/08/11 04:36:41;;;;;;;5.85;1.50;;;;;;;15.40;68.05;101402.53;2050161;28;20047;-71
2023/08/11 04:37:44;;;;;;;6.45;1.83;;;;;;;15.51;67.89;101412.16;2058752;28;20051;-71
2023/08/11 04:38:48;;;;;;;4.97;1.70;;;;;;;15.55;68.22;101415.09;2057223;28;20026;-71
2023/08/11 04:39:52;;;;;;;5.05;1.73;;;;;;;15.58;67.72;101417.22;2065615;28;20035;-71
2023/08/11 04:41:02;;;;;;;4.80;1.92;;;;;;;15.66;67.30;101408.44;2064980;28;20027;-72
2023/08/11 04:42:05;;;;;;;5.30;1.60;;;;;;;15.76;67.44;101418.34;2050267;28;20143;-72
2023/08/11 04:43:08;;;;;;;4.55;1.70;;;;;;;15.86;66.95;101412.81;2042142;28;20036;-72
2023/08/11 04:44:14;;;;;;;6.70;1.92;;;;;;;15.99;66.94;101417.50;2059909;28;20155;-71
2023/08/11 04:45:16;;;;;;;6.50;1.80;;;;;;;16.11;66.87;101408.09;2057823;28;20969;-71
2023/08/11 04:46:19;;;;;;;3.45;1.60;;;;;;;16.23;66.61;101405.72;2074137;28;20939;-70
2023/08/11 04:47:20;;;;;;;7.03;1.70;;;;;;;16.37;66.64;101406.59;2074197;28;20136;-71
2023/08/11 04:48:24;;;;;;;7.57;1.85;;;;;;;16.43;66.56;101391.84;2074035;28;20035;-71
2023/08/11 04:49:28;;;;;;;6.07;1.50;;;;;;;16.70;66.19;101409.28;2058407;28;20034;-71
2023/08/11 04:50:30;;;;;;;4.03;1.58;;;;;;;16.82;65.45;101414.28;2065942;28;20042;-71
2023/08/11 04:51:33;;;;;;;4.28;1.60;;;;;;;17.00;65.33;101409.88;2057801;28;20027;-71
2023/08/11 04:52:40;;;;;;;3.80;1.60;;;;;;;17.13;64.83;101406.34;2050988;28;20949;-71
2023/08/11 04:53:42;;;;;;;4.07;1.35;;;;;;;17.33;64.41;101416.81;2042020;28;20040;-70
2023/08/11 04:54:46;;;;;;;5.90;1.90;;;;;;;17.53;63.97;101409.38;2050426;28;20024;-71
2023/08/11 04:55:49;;;;;;;6.18;1.60;;;;;;;17.70;63.50;101406.78;2058389;28;20031;-71
2023/08/11 04:56:51;;;;;;;8.30;1.65;;;;;;;17.88;63.36;101409.72;2057854;28;20035;-71